sensor_id;sensor_type;location;lat;lon;timestamp;P1;durP1;ratioP1;P2;durP2;ratioP2
16766;SDS011;8501;49.926;8.404;2022-09-29T00:01:28;9.03;;;6.13;;
16766;SDS011;8501;49.926;8.404;2022-09-29T00:03:53;8.97;;;5.87;;
16766;SDS011;8501;49.926;8.404;2022-09-29T00:06:19;7.63;;;5.53;;
16766;SDS011;8501;49.926;8.404;2022-09-29T00:08:44;9.57;;;6.10;;
16766;SDS011;8501;49.926;8.404;2022-09-29T00:11:11;8.87;;;6.07;;
16766;SDS011;8501;49.926;8.404;2022-09-29T00:13:39;8.00;;;5.47;;
16766;SDS011;8501;49.926;8.404;2022-09-29T00:16:05;9.77;;;6.00;;
16766;SDS011;8501;49.926;8.404;2022-09-29T00:18:31;8.23;;;6.00;;
16766;SDS011;8501;49.926;8.404;2022-09-29T00:23:33;8.37;;;6.20;;
16766;SDS011;8501;49.926;8.404;2022-09-29T00:28:29;11.87;;;6.50;;
16766;SDS011;8501;49.926;8.404;2022-09-29T00:30:56;11.73;;;6.20;;
16766;SDS011;8501;49.926;8.404;2022-09-29T00:33:24;13.20;;;7.00;;
16766;SDS011;8501;49.926;8.404;2022-09-29T00:35:59;8.13;;;6.27;;
16766;SDS011;8501;49.926;8.404;2022-09-29T00:38:27;10.50;;;6.67;;
16766;SDS011;8501;49.926;8.404;2022-09-29T00:40:53;8.03;;;5.80;;
16766;SDS011;8501;49.926;8.404;2022-09-29T00:43:20;9.80;;;6.50;;
16766;SDS011;8501;49.926;8.404;2022-09-29T00:45:49;10.73;;;5.87;;
16766;SDS011;8501;49.926;8.404;2022-09-29T00:48:19;9.67;;;6.40;;
16766;SDS011;8501;49.926;8.404;2022-09-29T00:50:54;7.73;;;5.93;;
16766;SDS011;8501;49.926;8.404;2022-09-29T00:53:21;7.70;;;5.83;;
16766;SDS011;8501;49.926;8.404;2022-09-29T00:55:49;9.90;;;5.90;;
16766;SDS011;8501;49.926;8.404;2022-09-29T00:58:27;12.77;;;6.00;;
16766;SDS011;8501;49.926;8.404;2022-09-29T01:00:58;9.53;;;6.00;;
16766;SDS011;8501;49.926;8.404;2022-09-29T01:03:26;7.93;;;5.90;;
16766;SDS011;8501;49.926;8.404;2022-09-29T01:05:56;8.90;;;6.10;;
16766;SDS011;8501;49.926;8.404;2022-09-29T01:11:05;9.80;;;5.50;;
16766;SDS011;8501;49.926;8.404;2022-09-29T01:13:31;9.73;;;6.00;;
16766;SDS011;8501;49.926;8.404;2022-09-29T01:15:57;9.23;;;5.60;;
16766;SDS011;8501;49.926;8.404;2022-09-29T01:18:23;8.33;;;5.60;;
16766;SDS011;8501;49.926;8.404;2022-09-29T01:20:56;7.40;;;5.80;;
16766;SDS011;8501;49.926;8.404;2022-09-29T01:32:04;8.57;;;6.00;;
16766;SDS011;8501;49.926;8.404;2022-09-29T01:37:11;11.27;;;5.90;;
16766;SDS011;8501;49.926;8.404;2022-09-29T01:39:41;7.23;;;5.63;;
16766;SDS011;8501;49.926;8.404;2022-09-29T01:42:12;8.27;;;5.60;;
16766;SDS011;8501;49.926;8.404;2022-09-29T01:44:48;10.63;;;5.83;;
16766;SDS011;8501;49.926;8.404;2022-09-29T01:47:26;10.13;;;6.00;;
16766;SDS011;8501;49.926;8.404;2022-09-29T01:49:59;9.90;;;6.57;;
16766;SDS011;8501;49.926;8.404;2022-09-29T01:52:43;8.70;;;5.97;;
16766;SDS011;8501;49.926;8.404;2022-09-29T01:55:14;7.80;;;5.67;;
16766;SDS011;8501;49.926;8.404;2022-09-29T01:57:48;9.07;;;5.53;;
16766;SDS011;8501;49.926;8.404;2022-09-29T02:00:19;6.63;;;5.70;;
16766;SDS011;8501;49.926;8.404;2022-09-29T02:03:01;8.33;;;5.53;;
16766;SDS011;8501;49.926;8.404;2022-09-29T02:05:48;9.33;;;5.77;;
16766;SDS011;8501;49.926;8.404;2022-09-29T02:10:47;13.50;;;8.23;;
16766;SDS011;8501;49.926;8.404;2022-09-29T02:13:20;13.83;;;7.90;;
16766;SDS011;8501;49.926;8.404;2022-09-29T02:15:48;8.77;;;6.37;;
16766;SDS011;8501;49.926;8.404;2022-09-29T02:18:18;12.30;;;6.73;;
16766;SDS011;8501;49.926;8.404;2022-09-29T02:20:47;9.93;;;6.30;;
16766;SDS011;8501;49.926;8.404;2022-09-29T02:23:14;9.73;;;6.93;;
16766;SDS011;8501;49.926;8.404;2022-09-29T02:25:40;11.00;;;7.23;;
16766;SDS011;8501;49.926;8.404;2022-09-29T02:28:07;11.50;;;7.40;;
16766;SDS011;8501;49.926;8.404;2022-09-29T02:30:33;10.47;;;6.63;;
16766;SDS011;8501;49.926;8.404;2022-09-29T02:32:59;7.87;;;5.80;;
16766;SDS011;8501;49.926;8.404;2022-09-29T02:35:27;8.73;;;6.30;;
16766;SDS011;8501;49.926;8.404;2022-09-29T02:38:05;10.73;;;6.03;;
16766;SDS011;8501;49.926;8.404;2022-09-29T02:40:46;9.70;;;6.43;;
16766;SDS011;8501;49.926;8.404;2022-09-29T02:43:27;9.90;;;6.47;;
16766;SDS011;8501;49.926;8.404;2022-09-29T02:46:13;10.67;;;6.90;;
16766;SDS011;8501;49.926;8.404;2022-09-29T02:49:00;10.07;;;6.17;;
16766;SDS011;8501;49.926;8.404;2022-09-29T02:51:29;10.77;;;7.10;;
16766;SDS011;8501;49.926;8.404;2022-09-29T02:54:04;9.30;;;6.50;;
16766;SDS011;8501;49.926;8.404;2022-09-29T02:56:37;13.10;;;6.53;;
16766;SDS011;8501;49.926;8.404;2022-09-29T02:59:13;11.80;;;6.80;;
16766;SDS011;8501;49.926;8.404;2022-09-29T03:01:46;9.53;;;6.97;;
16766;SDS011;8501;49.926;8.404;2022-09-29T03:04:16;10.27;;;6.50;;
16766;SDS011;8501;49.926;8.404;2022-09-29T03:06:42;10.50;;;5.87;;
16766;SDS011;8501;49.926;8.404;2022-09-29T03:09:08;12.67;;;6.70;;
16766;SDS011;8501;49.926;8.404;2022-09-29T03:11:34;11.67;;;6.17;;
16766;SDS011;8501;49.926;8.404;2022-09-29T03:13:59;12.03;;;7.00;;
16766;SDS011;8501;49.926;8.404;2022-09-29T03:16:25;10.60;;;7.50;;
16766;SDS011;8501;49.926;8.404;2022-09-29T03:18:50;10.57;;;7.37;;
16766;SDS011;8501;49.926;8.404;2022-09-29T03:21:16;11.53;;;6.83;;
16766;SDS011;8501;49.926;8.404;2022-09-29T03:23:42;12.63;;;6.53;;
16766;SDS011;8501;49.926;8.404;2022-09-29T03:26:07;9.97;;;6.50;;
16766;SDS011;8501;49.926;8.404;2022-09-29T03:28:33;8.23;;;5.90;;
16766;SDS011;8501;49.926;8.404;2022-09-29T03:31:06;9.00;;;6.27;;
16766;SDS011;8501;49.926;8.404;2022-09-29T03:33:33;7.97;;;5.57;;
16766;SDS011;8501;49.926;8.404;2022-09-29T03:36:03;9.20;;;5.83;;
16766;SDS011;8501;49.926;8.404;2022-09-29T03:38:30;8.57;;;6.17;;
16766;SDS011;8501;49.926;8.404;2022-09-29T03:40:57;7.80;;;5.77;;
16766;SDS011;8501;49.926;8.404;2022-09-29T03:43:22;8.50;;;6.23;;
16766;SDS011;8501;49.926;8.404;2022-09-29T03:45:48;11.93;;;6.90;;
16766;SDS011;8501;49.926;8.404;2022-09-29T03:48:15;8.40;;;6.10;;
16766;SDS011;8501;49.926;8.404;2022-09-29T03:50:41;9.53;;;6.03;;
16766;SDS011;8501;49.926;8.404;2022-09-29T03:53:08;8.67;;;6.03;;
16766;SDS011;8501;49.926;8.404;2022-09-29T03:55:33;10.27;;;6.13;;
16766;SDS011;8501;49.926;8.404;2022-09-29T03:57:59;7.83;;;5.93;;
16766;SDS011;8501;49.926;8.404;2022-09-29T04:00:24;7.93;;;5.63;;
16766;SDS011;8501;49.926;8.404;2022-09-29T04:02:52;10.67;;;5.93;;
16766;SDS011;8501;49.926;8.404;2022-09-29T04:05:18;8.17;;;5.60;;
16766;SDS011;8501;49.926;8.404;2022-09-29T04:07:45;9.43;;;6.40;;
16766;SDS011;8501;49.926;8.404;2022-09-29T04:10:11;9.70;;;6.10;;
16766;SDS011;8501;49.926;8.404;2022-09-29T04:12:36;11.13;;;7.30;;
16766;SDS011;8501;49.926;8.404;2022-09-29T04:15:02;11.53;;;7.17;;
16766;SDS011;8501;49.926;8.404;2022-09-29T04:17:28;11.17;;;5.87;;
16766;SDS011;8501;49.926;8.404;2022-09-29T04:19:53;10.90;;;6.00;;
16766;SDS011;8501;49.926;8.404;2022-09-29T04:22:19;8.57;;;5.80;;
16766;SDS011;8501;49.926;8.404;2022-09-29T04:24:45;10.43;;;6.23;;
16766;SDS011;8501;49.926;8.404;2022-09-29T04:27:12;10.63;;;6.23;;
16766;SDS011;8501;49.926;8.404;2022-09-29T04:29:38;10.67;;;6.07;;
16766;SDS011;8501;49.926;8.404;2022-09-29T04:32:03;9.43;;;6.90;;
16766;SDS011;8501;49.926;8.404;2022-09-29T04:34:30;11.60;;;7.97;;
16766;SDS011;8501;49.926;8.404;2022-09-29T04:36:56;12.40;;;8.00;;
16766;SDS011;8501;49.926;8.404;2022-09-29T04:39:22;14.97;;;8.90;;
16766;SDS011;8501;49.926;8.404;2022-09-29T04:41:47;14.50;;;9.40;;
16766;SDS011;8501;49.926;8.404;2022-09-29T04:44:13;18.90;;;10.30;;
16766;SDS011;8501;49.926;8.404;2022-09-29T04:46:38;16.80;;;9.70;;
16766;SDS011;8501;49.926;8.404;2022-09-29T04:49:04;22.80;;;10.83;;
16766;SDS011;8501;49.926;8.404;2022-09-29T04:51:29;14.87;;;9.17;;
16766;SDS011;8501;49.926;8.404;2022-09-29T04:53:56;17.13;;;10.40;;
16766;SDS011;8501;49.926;8.404;2022-09-29T04:56:22;18.80;;;10.83;;
16766;SDS011;8501;49.926;8.404;2022-09-29T04:58:48;19.17;;;10.57;;
16766;SDS011;8501;49.926;8.404;2022-09-29T05:01:13;20.60;;;10.83;;
16766;SDS011;8501;49.926;8.404;2022-09-29T05:03:40;23.17;;;11.07;;
16766;SDS011;8501;49.926;8.404;2022-09-29T05:06:06;20.03;;;11.73;;
16766;SDS011;8501;49.926;8.404;2022-09-29T05:08:33;17.10;;;10.70;;
16766;SDS011;8501;49.926;8.404;2022-09-29T05:11:01;21.80;;;11.53;;
16766;SDS011;8501;49.926;8.404;2022-09-29T05:13:28;15.63;;;10.50;;
16766;SDS011;8501;49.926;8.404;2022-09-29T05:15:54;19.07;;;11.40;;
16766;SDS011;8501;49.926;8.404;2022-09-29T05:18:21;16.07;;;10.07;;
16766;SDS011;8501;49.926;8.404;2022-09-29T05:20:47;16.80;;;10.53;;
16766;SDS011;8501;49.926;8.404;2022-09-29T05:23:12;19.83;;;10.90;;
16766;SDS011;8501;49.926;8.404;2022-09-29T05:25:38;18.30;;;11.03;;
16766;SDS011;8501;49.926;8.404;2022-09-29T05:28:04;17.83;;;10.87;;
16766;SDS011;8501;49.926;8.404;2022-09-29T05:30:30;19.03;;;10.77;;
16766;SDS011;8501;49.926;8.404;2022-09-29T05:32:55;18.17;;;10.70;;
16766;SDS011;8501;49.926;8.404;2022-09-29T05:35:21;21.10;;;11.50;;
16766;SDS011;8501;49.926;8.404;2022-09-29T05:37:47;17.93;;;10.83;;
16766;SDS011;8501;49.926;8.404;2022-09-29T05:40:12;21.03;;;11.07;;
16766;SDS011;8501;49.926;8.404;2022-09-29T05:42:38;19.43;;;11.03;;
16766;SDS011;8501;49.926;8.404;2022-09-29T05:45:04;23.50;;;12.00;;
16766;SDS011;8501;49.926;8.404;2022-09-29T05:47:32;23.17;;;11.57;;
16766;SDS011;8501;49.926;8.404;2022-09-29T05:49:57;21.77;;;11.83;;
16766;SDS011;8501;49.926;8.404;2022-09-29T05:52:23;21.13;;;12.00;;
16766;SDS011;8501;49.926;8.404;2022-09-29T05:54:48;19.33;;;11.17;;
16766;SDS011;8501;49.926;8.404;2022-09-29T05:57:15;21.30;;;11.73;;
16766;SDS011;8501;49.926;8.404;2022-09-29T05:59:40;18.97;;;11.10;;
16766;SDS011;8501;49.926;8.404;2022-09-29T06:02:07;19.20;;;11.27;;
16766;SDS011;8501;49.926;8.404;2022-09-29T06:04:33;19.63;;;11.00;;
16766;SDS011;8501;49.926;8.404;2022-09-29T06:06:59;18.10;;;10.27;;
16766;SDS011;8501;49.926;8.404;2022-09-29T06:09:25;20.30;;;11.70;;
16766;SDS011;8501;49.926;8.404;2022-09-29T06:11:50;20.47;;;11.80;;
16766;SDS011;8501;49.926;8.404;2022-09-29T06:14:16;21.10;;;11.57;;
16766;SDS011;8501;49.926;8.404;2022-09-29T06:16:42;18.80;;;11.20;;
16766;SDS011;8501;49.926;8.404;2022-09-29T06:19:07;20.27;;;10.97;;
16766;SDS011;8501;49.926;8.404;2022-09-29T06:21:33;20.07;;;11.60;;
16766;SDS011;8501;49.926;8.404;2022-09-29T06:23:59;19.33;;;10.60;;
16766;SDS011;8501;49.926;8.404;2022-09-29T06:26:26;16.13;;;10.47;;
16766;SDS011;8501;49.926;8.404;2022-09-29T06:28:52;17.63;;;10.53;;
16766;SDS011;8501;49.926;8.404;2022-09-29T06:31:20;16.53;;;10.07;;
16766;SDS011;8501;49.926;8.404;2022-09-29T06:33:47;18.70;;;10.37;;
16766;SDS011;8501;49.926;8.404;2022-09-29T06:36:17;19.40;;;10.33;;
16766;SDS011;8501;49.926;8.404;2022-09-29T06:39:08;20.23;;;12.07;;
16766;SDS011;8501;49.926;8.404;2022-09-29T06:41:34;28.10;;;17.57;;
16766;SDS011;8501;49.926;8.404;2022-09-29T06:44:00;21.57;;;12.70;;
16766;SDS011;8501;49.926;8.404;2022-09-29T06:46:26;18.87;;;11.00;;
16766;SDS011;8501;49.926;8.404;2022-09-29T06:48:52;19.97;;;12.40;;
16766;SDS011;8501;49.926;8.404;2022-09-29T06:51:19;23.63;;;13.90;;
16766;SDS011;8501;49.926;8.404;2022-09-29T06:53:48;20.60;;;11.73;;
16766;SDS011;8501;49.926;8.404;2022-09-29T06:56:14;21.37;;;12.70;;
16766;SDS011;8501;49.926;8.404;2022-09-29T06:58:40;20.63;;;11.60;;
16766;SDS011;8501;49.926;8.404;2022-09-29T07:01:05;21.00;;;11.53;;
16766;SDS011;8501;49.926;8.404;2022-09-29T07:03:31;22.83;;;14.23;;
16766;SDS011;8501;49.926;8.404;2022-09-29T07:06:00;22.93;;;13.73;;
16766;SDS011;8501;49.926;8.404;2022-09-29T07:08:30;22.73;;;13.73;;
16766;SDS011;8501;49.926;8.404;2022-09-29T07:10:56;21.63;;;12.27;;
16766;SDS011;8501;49.926;8.404;2022-09-29T07:13:22;21.30;;;11.80;;
16766;SDS011;8501;49.926;8.404;2022-09-29T07:15:48;19.63;;;11.07;;
16766;SDS011;8501;49.926;8.404;2022-09-29T07:18:14;22.53;;;11.70;;
16766;SDS011;8501;49.926;8.404;2022-09-29T07:20:39;20.60;;;11.63;;
16766;SDS011;8501;49.926;8.404;2022-09-29T07:23:05;20.83;;;11.23;;
16766;SDS011;8501;49.926;8.404;2022-09-29T07:25:34;22.37;;;11.93;;
16766;SDS011;8501;49.926;8.404;2022-09-29T07:27:59;21.60;;;11.67;;
16766;SDS011;8501;49.926;8.404;2022-09-29T07:30:25;23.47;;;12.57;;
16766;SDS011;8501;49.926;8.404;2022-09-29T07:32:55;21.67;;;11.97;;
16766;SDS011;8501;49.926;8.404;2022-09-29T07:35:21;21.27;;;10.83;;
16766;SDS011;8501;49.926;8.404;2022-09-29T07:37:53;21.33;;;11.13;;
16766;SDS011;8501;49.926;8.404;2022-09-29T07:40:19;19.13;;;10.53;;
16766;SDS011;8501;49.926;8.404;2022-09-29T07:42:46;22.83;;;12.00;;
16766;SDS011;8501;49.926;8.404;2022-09-29T07:45:12;21.47;;;10.83;;
16766;SDS011;8501;49.926;8.404;2022-09-29T07:47:37;21.17;;;10.90;;
16766;SDS011;8501;49.926;8.404;2022-09-29T07:50:03;19.00;;;11.03;;
16766;SDS011;8501;49.926;8.404;2022-09-29T07:52:29;19.87;;;11.43;;
16766;SDS011;8501;49.926;8.404;2022-09-29T07:54:55;20.10;;;11.60;;
16766;SDS011;8501;49.926;8.404;2022-09-29T07:57:20;21.43;;;11.83;;
16766;SDS011;8501;49.926;8.404;2022-09-29T07:59:46;20.80;;;11.30;;
16766;SDS011;8501;49.926;8.404;2022-09-29T08:02:12;22.20;;;11.90;;
16766;SDS011;8501;49.926;8.404;2022-09-29T08:04:37;21.40;;;11.70;;
16766;SDS011;8501;49.926;8.404;2022-09-29T08:07:03;20.73;;;11.60;;
16766;SDS011;8501;49.926;8.404;2022-09-29T08:09:28;23.10;;;12.50;;
16766;SDS011;8501;49.926;8.404;2022-09-29T08:11:54;21.37;;;11.33;;
16766;SDS011;8501;49.926;8.404;2022-09-29T08:14:19;23.30;;;11.10;;
16766;SDS011;8501;49.926;8.404;2022-09-29T08:16:45;21.13;;;11.50;;
16766;SDS011;8501;49.926;8.404;2022-09-29T08:19:11;17.23;;;9.97;;
16766;SDS011;8501;49.926;8.404;2022-09-29T08:21:36;20.47;;;10.50;;
16766;SDS011;8501;49.926;8.404;2022-09-29T08:24:03;18.63;;;10.07;;
16766;SDS011;8501;49.926;8.404;2022-09-29T08:26:33;21.63;;;11.43;;
16766;SDS011;8501;49.926;8.404;2022-09-29T08:29:01;22.10;;;11.33;;
16766;SDS011;8501;49.926;8.404;2022-09-29T08:31:27;19.60;;;11.13;;
16766;SDS011;8501;49.926;8.404;2022-09-29T08:33:53;19.70;;;11.03;;
16766;SDS011;8501;49.926;8.404;2022-09-29T08:36:22;19.13;;;11.43;;
16766;SDS011;8501;49.926;8.404;2022-09-29T08:38:48;20.37;;;11.17;;
16766;SDS011;8501;49.926;8.404;2022-09-29T08:44:06;20.50;;;11.10;;
16766;SDS011;8501;49.926;8.404;2022-09-29T08:46:47;18.77;;;10.53;;
16766;SDS011;8501;49.926;8.404;2022-09-29T08:49:31;23.70;;;12.33;;
16766;SDS011;8501;49.926;8.404;2022-09-29T08:52:07;21.33;;;11.33;;
16766;SDS011;8501;49.926;8.404;2022-09-29T08:54:41;20.53;;;11.17;;
16766;SDS011;8501;49.926;8.404;2022-09-29T08:57:11;20.37;;;11.13;;
16766;SDS011;8501;49.926;8.404;2022-09-29T08:59:42;21.60;;;11.33;;
16766;SDS011;8501;49.926;8.404;2022-09-29T09:02:22;22.77;;;12.33;;
16766;SDS011;8501;49.926;8.404;2022-09-29T09:08:02;21.00;;;11.47;;
16766;SDS011;8501;49.926;8.404;2022-09-29T09:13:15;20.07;;;11.57;;
16766;SDS011;8501;49.926;8.404;2022-09-29T09:16:10;20.70;;;12.60;;
16766;SDS011;8501;49.926;8.404;2022-09-29T09:21:41;20.17;;;11.77;;
16766;SDS011;8501;49.926;8.404;2022-09-29T09:24:13;20.43;;;11.67;;
16766;SDS011;8501;49.926;8.404;2022-09-29T09:26:45;21.50;;;12.43;;
16766;SDS011;8501;49.926;8.404;2022-09-29T09:29:19;19.13;;;12.10;;
16766;SDS011;8501;49.926;8.404;2022-09-29T09:31:54;21.60;;;11.93;;
16766;SDS011;8501;49.926;8.404;2022-09-29T09:34:31;20.67;;;11.90;;
16766;SDS011;8501;49.926;8.404;2022-09-29T09:37:19;19.90;;;11.93;;
16766;SDS011;8501;49.926;8.404;2022-09-29T09:40:19;21.03;;;12.10;;
16766;SDS011;8501;49.926;8.404;2022-09-29T09:43:04;20.67;;;12.43;;
16766;SDS011;8501;49.926;8.404;2022-09-29T09:45:48;22.50;;;13.73;;
16766;SDS011;8501;49.926;8.404;2022-09-29T09:48:39;23.17;;;13.07;;
16766;SDS011;8501;49.926;8.404;2022-09-29T09:51:20;22.47;;;12.30;;
16766;SDS011;8501;49.926;8.404;2022-09-29T09:54:19;21.77;;;12.23;;
16766;SDS011;8501;49.926;8.404;2022-09-29T10:02:24;23.60;;;12.67;;
16766;SDS011;8501;49.926;8.404;2022-09-29T10:04:50;23.90;;;13.27;;
16766;SDS011;8501;49.926;8.404;2022-09-29T10:07:18;24.93;;;12.77;;
16766;SDS011;8501;49.926;8.404;2022-09-29T10:09:45;24.40;;;13.13;;
16766;SDS011;8501;49.926;8.404;2022-09-29T10:12:18;21.70;;;12.60;;
16766;SDS011;8501;49.926;8.404;2022-09-29T10:14:51;28.23;;;14.40;;
16766;SDS011;8501;49.926;8.404;2022-09-29T10:17:31;24.77;;;13.13;;
16766;SDS011;8501;49.926;8.404;2022-09-29T10:20:04;23.53;;;13.27;;
16766;SDS011;8501;49.926;8.404;2022-09-29T10:22:32;22.73;;;13.07;;
16766;SDS011;8501;49.926;8.404;2022-09-29T10:27:39;24.40;;;13.43;;
16766;SDS011;8501;49.926;8.404;2022-09-29T10:32:57;23.57;;;13.10;;
16766;SDS011;8501;49.926;8.404;2022-09-29T10:35:27;23.67;;;13.17;;
16766;SDS011;8501;49.926;8.404;2022-09-29T10:38:00;24.70;;;12.97;;
16766;SDS011;8501;49.926;8.404;2022-09-29T10:40:29;21.17;;;12.07;;
16766;SDS011;8501;49.926;8.404;2022-09-29T10:42:54;23.07;;;13.20;;
16766;SDS011;8501;49.926;8.404;2022-09-29T10:45:22;20.70;;;12.40;;
16766;SDS011;8501;49.926;8.404;2022-09-29T10:50:29;26.43;;;13.97;;
16766;SDS011;8501;49.926;8.404;2022-09-29T10:52:58;23.03;;;13.47;;
16766;SDS011;8501;49.926;8.404;2022-09-29T10:55:32;22.93;;;13.00;;
16766;SDS011;8501;49.926;8.404;2022-09-29T10:58:00;24.60;;;13.93;;
16766;SDS011;8501;49.926;8.404;2022-09-29T11:00:50;23.93;;;12.53;;
16766;SDS011;8501;49.926;8.404;2022-09-29T11:03:31;25.30;;;13.37;;
16766;SDS011;8501;49.926;8.404;2022-09-29T11:06:04;23.53;;;13.10;;
16766;SDS011;8501;49.926;8.404;2022-09-29T11:11:26;22.80;;;12.77;;
16766;SDS011;8501;49.926;8.404;2022-09-29T11:14:03;23.97;;;14.17;;
16766;SDS011;8501;49.926;8.404;2022-09-29T11:16:33;24.20;;;14.33;;
16766;SDS011;8501;49.926;8.404;2022-09-29T11:19:10;24.93;;;14.07;;
16766;SDS011;8501;49.926;8.404;2022-09-29T11:24:58;23.83;;;13.73;;
16766;SDS011;8501;49.926;8.404;2022-09-29T11:32:37;25.23;;;13.97;;
16766;SDS011;8501;49.926;8.404;2022-09-29T11:35:35;25.17;;;13.80;;
16766;SDS011;8501;49.926;8.404;2022-09-29T11:43:50;25.47;;;14.70;;
16766;SDS011;8501;49.926;8.404;2022-09-29T11:52:50;27.43;;;14.07;;
16766;SDS011;8501;49.926;8.404;2022-09-29T12:00:17;26.63;;;14.20;;
16766;SDS011;8501;49.926;8.404;2022-09-29T12:11:04;34.17;;;15.30;;
16766;SDS011;8501;49.926;8.404;2022-09-29T12:13:44;30.00;;;15.20;;
16766;SDS011;8501;49.926;8.404;2022-09-29T12:16:19;28.07;;;15.73;;
16766;SDS011;8501;49.926;8.404;2022-09-29T12:19:04;26.63;;;15.03;;
16766;SDS011;8501;49.926;8.404;2022-09-29T12:21:36;24.73;;;14.43;;
16766;SDS011;8501;49.926;8.404;2022-09-29T12:24:06;26.90;;;14.80;;
16766;SDS011;8501;49.926;8.404;2022-09-29T12:26:49;27.30;;;14.57;;
16766;SDS011;8501;49.926;8.404;2022-09-29T12:29:33;23.33;;;14.97;;
16766;SDS011;8501;49.926;8.404;2022-09-29T12:32:25;29.23;;;15.20;;
16766;SDS011;8501;49.926;8.404;2022-09-29T12:35:21;24.47;;;14.60;;
16766;SDS011;8501;49.926;8.404;2022-09-29T12:38:04;24.27;;;14.57;;
16766;SDS011;8501;49.926;8.404;2022-09-29T12:41:25;23.90;;;14.87;;
16766;SDS011;8501;49.926;8.404;2022-09-29T12:43:57;25.00;;;14.93;;
16766;SDS011;8501;49.926;8.404;2022-09-29T12:46:52;25.80;;;14.17;;
16766;SDS011;8501;49.926;8.404;2022-09-29T12:49:32;25.07;;;13.87;;
16766;SDS011;8501;49.926;8.404;2022-09-29T12:52:04;24.37;;;13.77;;
16766;SDS011;8501;49.926;8.404;2022-09-29T12:54:45;28.43;;;13.93;;
16766;SDS011;8501;49.926;8.404;2022-09-29T12:57:15;22.47;;;14.20;;
16766;SDS011;8501;49.926;8.404;2022-09-29T13:08:22;24.00;;;13.73;;
16766;SDS011;8501;49.926;8.404;2022-09-29T13:11:13;26.13;;;14.13;;
16766;SDS011;8501;49.926;8.404;2022-09-29T13:14:24;26.47;;;14.50;;
16766;SDS011;8501;49.926;8.404;2022-09-29T13:23:06;22.83;;;12.17;;
16766;SDS011;8501;49.926;8.404;2022-09-29T13:28:29;25.00;;;12.13;;
16766;SDS011;8501;49.926;8.404;2022-09-29T13:30:57;22.03;;;11.70;;
16766;SDS011;8501;49.926;8.404;2022-09-29T13:33:26;17.47;;;11.27;;
16766;SDS011;8501;49.926;8.404;2022-09-29T13:35:53;20.43;;;10.60;;
16766;SDS011;8501;49.926;8.404;2022-09-29T13:38:20;17.53;;;10.03;;
16766;SDS011;8501;49.926;8.404;2022-09-29T13:49:10;13.87;;;8.50;;
16766;SDS011;8501;49.926;8.404;2022-09-29T13:51:48;13.60;;;8.23;;
16766;SDS011;8501;49.926;8.404;2022-09-29T13:54:22;14.90;;;9.13;;
16766;SDS011;8501;49.926;8.404;2022-09-29T13:59:37;12.40;;;7.80;;
16766;SDS011;8501;49.926;8.404;2022-09-29T14:02:18;13.57;;;8.73;;
16766;SDS011;8501;49.926;8.404;2022-09-29T14:04:52;12.97;;;8.57;;
16766;SDS011;8501;49.926;8.404;2022-09-29T14:07:36;15.70;;;8.43;;
16766;SDS011;8501;49.926;8.404;2022-09-29T14:10:16;14.03;;;8.53;;
16766;SDS011;8501;49.926;8.404;2022-09-29T14:12:59;13.57;;;7.57;;
16766;SDS011;8501;49.926;8.404;2022-09-29T14:15:42;11.37;;;7.07;;
16766;SDS011;8501;49.926;8.404;2022-09-29T14:21:07;12.50;;;7.47;;
16766;SDS011;8501;49.926;8.404;2022-09-29T14:23:53;12.90;;;7.50;;
16766;SDS011;8501;49.926;8.404;2022-09-29T14:29:16;12.67;;;8.10;;
16766;SDS011;8501;49.926;8.404;2022-09-29T14:31:46;10.90;;;7.30;;
16766;SDS011;8501;49.926;8.404;2022-09-29T14:34:15;11.60;;;7.50;;
16766;SDS011;8501;49.926;8.404;2022-09-29T14:36:43;10.43;;;6.97;;
16766;SDS011;8501;49.926;8.404;2022-09-29T14:39:12;12.80;;;6.77;;
16766;SDS011;8501;49.926;8.404;2022-09-29T14:41:40;10.30;;;6.60;;
16766;SDS011;8501;49.926;8.404;2022-09-29T14:44:07;11.53;;;7.13;;
16766;SDS011;8501;49.926;8.404;2022-09-29T14:53:20;9.53;;;5.70;;
16766;SDS011;8501;49.926;8.404;2022-09-29T15:04:04;6.43;;;4.30;;
16766;SDS011;8501;49.926;8.404;2022-09-29T15:06:34;6.80;;;4.70;;
16766;SDS011;8501;49.926;8.404;2022-09-29T15:09:14;5.57;;;4.30;;
16766;SDS011;8501;49.926;8.404;2022-09-29T15:11:51;8.40;;;4.50;;
16766;SDS011;8501;49.926;8.404;2022-09-29T15:14:29;6.10;;;4.27;;
16766;SDS011;8501;49.926;8.404;2022-09-29T15:25:35;6.37;;;3.30;;
16766;SDS011;8501;49.926;8.404;2022-09-29T15:28:18;4.70;;;3.03;;
16766;SDS011;8501;49.926;8.404;2022-09-29T15:30:52;5.00;;;3.07;;
16766;SDS011;8501;49.926;8.404;2022-09-29T15:33:26;5.83;;;3.50;;
16766;SDS011;8501;49.926;8.404;2022-09-29T15:35:57;3.80;;;2.83;;
16766;SDS011;8501;49.926;8.404;2022-09-29T15:38:28;5.10;;;3.10;;
16766;SDS011;8501;49.926;8.404;2022-09-29T15:41:02;5.57;;;3.30;;
16766;SDS011;8501;49.926;8.404;2022-09-29T15:43:51;6.50;;;3.57;;
16766;SDS011;8501;49.926;8.404;2022-09-29T15:46:19;5.40;;;3.67;;
16766;SDS011;8501;49.926;8.404;2022-09-29T15:51:28;6.20;;;3.27;;
16766;SDS011;8501;49.926;8.404;2022-09-29T15:53:54;6.47;;;4.00;;
16766;SDS011;8501;49.926;8.404;2022-09-29T15:56:20;6.53;;;3.90;;
16766;SDS011;8501;49.926;8.404;2022-09-29T15:58:46;4.10;;;3.30;;
16766;SDS011;8501;49.926;8.404;2022-09-29T16:01:13;5.00;;;3.30;;
16766;SDS011;8501;49.926;8.404;2022-09-29T16:03:48;5.83;;;3.50;;
16766;SDS011;8501;49.926;8.404;2022-09-29T16:08:53;4.27;;;2.93;;
16766;SDS011;8501;49.926;8.404;2022-09-29T16:11:22;6.30;;;2.93;;
16766;SDS011;8501;49.926;8.404;2022-09-29T16:13:52;6.47;;;2.90;;
16766;SDS011;8501;49.926;8.404;2022-09-29T16:16:26;4.83;;;2.97;;
16766;SDS011;8501;49.926;8.404;2022-09-29T16:18:57;4.33;;;3.00;;
16766;SDS011;8501;49.926;8.404;2022-09-29T16:21:29;5.47;;;2.90;;
16766;SDS011;8501;49.926;8.404;2022-09-29T16:24:03;5.63;;;2.47;;
16766;SDS011;8501;49.926;8.404;2022-09-29T16:26:38;7.07;;;2.97;;
16766;SDS011;8501;49.926;8.404;2022-09-29T16:29:21;6.23;;;3.10;;
16766;SDS011;8501;49.926;8.404;2022-09-29T16:31:55;4.63;;;3.10;;
16766;SDS011;8501;49.926;8.404;2022-09-29T16:36:48;5.27;;;3.10;;
16766;SDS011;8501;49.926;8.404;2022-09-29T16:39:19;6.00;;;2.90;;
16766;SDS011;8501;49.926;8.404;2022-09-29T16:41:50;5.60;;;3.47;;
16766;SDS011;8501;49.926;8.404;2022-09-29T16:44:24;6.37;;;3.53;;
16766;SDS011;8501;49.926;8.404;2022-09-29T16:49:31;7.27;;;4.67;;
16766;SDS011;8501;49.926;8.404;2022-09-29T16:52:10;6.73;;;4.27;;
16766;SDS011;8501;49.926;8.404;2022-09-29T16:54:41;4.27;;;3.43;;
16766;SDS011;8501;49.926;8.404;2022-09-29T16:57:13;7.30;;;3.97;;
16766;SDS011;8501;49.926;8.404;2022-09-29T16:59:42;4.97;;;4.37;;
16766;SDS011;8501;49.926;8.404;2022-09-29T17:02:08;5.70;;;3.47;;
16766;SDS011;8501;49.926;8.404;2022-09-29T17:04:35;5.47;;;3.70;;
16766;SDS011;8501;49.926;8.404;2022-09-29T17:07:01;6.30;;;4.33;;
16766;SDS011;8501;49.926;8.404;2022-09-29T17:09:27;9.33;;;5.97;;
16766;SDS011;8501;49.926;8.404;2022-09-29T17:11:53;7.00;;;4.50;;
16766;SDS011;8501;49.926;8.404;2022-09-29T17:14:18;7.10;;;5.20;;
16766;SDS011;8501;49.926;8.404;2022-09-29T17:16:45;8.63;;;4.13;;
16766;SDS011;8501;49.926;8.404;2022-09-29T17:19:15;4.77;;;3.20;;
16766;SDS011;8501;49.926;8.404;2022-09-29T17:21:43;7.67;;;3.53;;
16766;SDS011;8501;49.926;8.404;2022-09-29T17:24:08;8.83;;;4.30;;
16766;SDS011;8501;49.926;8.404;2022-09-29T17:29:20;8.20;;;5.10;;
16766;SDS011;8501;49.926;8.404;2022-09-29T17:31:46;5.07;;;3.83;;
16766;SDS011;8501;49.926;8.404;2022-09-29T17:34:11;9.40;;;3.93;;
16766;SDS011;8501;49.926;8.404;2022-09-29T17:36:37;8.43;;;5.13;;
16766;SDS011;8501;49.926;8.404;2022-09-29T17:39:03;9.00;;;4.63;;
16766;SDS011;8501;49.926;8.404;2022-09-29T17:41:28;8.30;;;4.57;;